createdAt,value
2022-07-25T00:01:37.757Z,2.40
2022-07-25T00:04:05.257Z,2.42
2022-07-25T00:06:32.154Z,2.58
2022-07-25T00:08:58.999Z,3.03
2022-07-25T00:11:25.508Z,2.50
2022-07-25T00:13:52.031Z,2.88
2022-07-25T00:16:18.710Z,2.83
2022-07-25T00:18:45.421Z,6.03
2022-07-25T00:21:11.933Z,7.00
2022-07-25T00:23:38.421Z,6.88
2022-07-25T00:26:05.119Z,5.70
2022-07-25T00:28:32.625Z,5.45
2022-07-25T00:30:59.351Z,5.57
2022-07-25T00:33:26.019Z,4.93
2022-07-25T00:35:52.436Z,5.20
2022-07-25T00:38:18.960Z,4.50
2022-07-25T00:40:45.445Z,3.83
2022-07-25T00:43:20.983Z,4.93
2022-07-25T00:45:47.389Z,4.13
2022-07-25T00:48:13.974Z,3.58
2022-07-25T00:50:40.595Z,3.75
2022-07-25T00:53:07.080Z,3.75
2022-07-25T00:55:33.825Z,3.38
2022-07-25T00:58:00.267Z,3.28
2022-07-25T01:00:26.818Z,3.28
2022-07-25T01:02:53.376Z,3.30
2022-07-25T01:05:19.912Z,3.08
2022-07-25T01:07:47.325Z,3.00
2022-07-25T01:10:14.001Z,3.35
2022-07-25T01:12:54.878Z,2.75
2022-07-25T01:15:23.876Z,3.58
2022-07-25T01:17:50.814Z,2.97
2022-07-25T01:20:22.498Z,3.33
2022-07-25T01:22:49.313Z,3.50
2022-07-25T01:25:16.906Z,3.10
2022-07-25T01:30:12.890Z,3.10
2022-07-25T01:32:40.101Z,3.55
2022-07-25T01:35:07.988Z,3.22
2022-07-25T01:37:34.737Z,3.75
2022-07-25T01:40:01.760Z,3.63
2022-07-25T01:42:28.633Z,3.55
2022-07-25T01:44:55.865Z,3.45
2022-07-25T01:47:22.552Z,2.72
2022-07-25T01:49:49.439Z,3.03
2022-07-25T01:52:16.086Z,3.20
2022-07-25T01:54:43.458Z,3.40
2022-07-25T01:59:39.433Z,3.13
2022-07-25T02:02:07.409Z,2.88
2022-07-25T02:04:35.114Z,3.50
2022-07-25T02:07:02.682Z,3.10
2022-07-25T02:09:29.161Z,3.13
2022-07-25T02:11:56.240Z,3.35
2022-07-25T02:14:23.556Z,3.50
2022-07-25T02:16:50.336Z,2.80
2022-07-25T02:19:16.889Z,3.45
2022-07-25T02:21:43.357Z,3.53
2022-07-25T02:24:10.233Z,3.15
2022-07-25T02:26:36.820Z,3.20
2022-07-25T02:29:04.059Z,3.83
2022-07-25T02:31:30.565Z,3.85
2022-07-25T02:33:59.243Z,3.45
2022-07-25T02:36:25.770Z,3.90
2022-07-25T02:38:52.325Z,3.72
2022-07-25T02:41:18.838Z,4.18
2022-07-25T02:43:45.305Z,4.03
2022-07-25T02:46:12.031Z,4.32
2022-07-25T02:48:38.754Z,3.42
2022-07-25T02:51:05.349Z,3.88
2022-07-25T02:53:55.542Z,3.72
2022-07-25T02:56:18.323Z,3.83
2022-07-25T02:58:47.871Z,3.75
2022-07-25T03:01:14.479Z,3.45
2022-07-25T03:03:41.200Z,3.78
2022-07-25T03:06:08.022Z,3.80
2022-07-25T03:08:34.657Z,4.07
2022-07-25T03:11:01.091Z,3.92
2022-07-25T03:13:27.635Z,4.30
2022-07-25T03:15:54.063Z,3.42
2022-07-25T03:18:20.731Z,3.83
2022-07-25T03:20:47.191Z,4.45
2022-07-25T03:23:13.713Z,3.88
2022-07-25T03:28:06.994Z,4.03
2022-07-25T03:30:33.419Z,4.40
2022-07-25T03:32:59.853Z,4.28
2022-07-25T03:35:26.439Z,4.13
2022-07-25T03:37:53.972Z,4.43
2022-07-25T03:40:20.642Z,5.18
2022-07-25T03:42:47.188Z,4.70
2022-07-25T03:45:13.701Z,4.50
2022-07-25T03:47:40.212Z,4.93
2022-07-25T03:50:06.924Z,4.93
2022-07-25T03:52:33.368Z,4.60
2022-07-25T03:54:59.980Z,4.43
2022-07-25T03:57:26.419Z,4.75
2022-07-25T03:59:53.042Z,4.45
2022-07-25T04:02:19.723Z,5.03
2022-07-25T04:04:46.670Z,5.25
2022-07-25T04:07:13.085Z,4.93
2022-07-25T04:09:39.625Z,5.30
2022-07-25T04:12:06.284Z,4.68
2022-07-25T04:14:32.836Z,5.72
2022-07-25T04:17:01.578Z,5.72
2022-07-25T04:19:28.819Z,5.78
2022-07-25T04:21:55.720Z,5.57
2022-07-25T04:24:22.170Z,5.30
2022-07-25T04:26:49.188Z,6.88
2022-07-25T04:29:15.954Z,5.43
2022-07-25T04:31:42.474Z,6.10
2022-07-25T04:34:09.295Z,6.85
2022-07-25T04:36:36.210Z,7.60
2022-07-25T04:39:02.875Z,7.40
2022-07-25T04:41:29.360Z,7.03
2022-07-25T04:43:55.838Z,7.57
2022-07-25T04:46:23.088Z,5.97
2022-07-25T04:48:51.357Z,7.53
2022-07-25T04:51:18.719Z,8.02
2022-07-25T04:53:45.680Z,7.40
2022-07-25T04:56:12.527Z,7.47
2022-07-25T04:58:39.034Z,7.38
2022-07-25T05:01:05.883Z,7.35
2022-07-25T05:03:32.367Z,8.23
2022-07-25T05:05:59.013Z,9.05
2022-07-25T05:08:25.476Z,7.53
2022-07-25T05:10:51.934Z,8.57
2022-07-25T05:13:20.564Z,7.28
2022-07-25T05:15:47.025Z,7.32
2022-07-25T05:18:13.517Z,6.82
2022-07-25T05:20:40.068Z,6.53
2022-07-25T05:23:06.662Z,7.05
2022-07-25T05:25:33.308Z,7.45
2022-07-25T05:27:59.943Z,6.05
2022-07-25T05:30:26.494Z,6.43
2022-07-25T05:32:54.077Z,5.95
2022-07-25T05:35:20.577Z,5.95
2022-07-25T05:37:47.178Z,5.90
2022-07-25T05:40:13.679Z,6.07
2022-07-25T05:42:40.189Z,5.20
2022-07-25T05:45:07.208Z,5.57
2022-07-25T05:47:33.750Z,4.22
2022-07-25T05:50:00.875Z,4.43
2022-07-25T05:52:27.625Z,4.68
2022-07-25T05:54:54.265Z,4.10
2022-07-25T05:57:20.677Z,3.92
2022-07-25T05:59:47.145Z,4.47
2022-07-25T06:02:13.883Z,4.20
2022-07-25T06:04:40.404Z,3.80
2022-07-25T06:07:07.006Z,3.60
2022-07-25T06:09:34.995Z,3.42
2022-07-25T06:12:01.689Z,3.60
2022-07-25T06:16:56.787Z,3.20
2022-07-25T06:19:23.516Z,3.22
2022-07-25T06:21:50.118Z,3.17
2022-07-25T06:24:16.569Z,2.97
2022-07-25T06:26:43.148Z,3.60
2022-07-25T06:29:09.629Z,3.00
2022-07-25T06:31:36.091Z,3.10
2022-07-25T06:34:02.938Z,2.97
2022-07-25T06:36:32.343Z,2.55
2022-07-25T06:38:59.099Z,2.70
2022-07-25T06:41:25.524Z,2.58
2022-07-25T06:43:51.957Z,2.45
2022-07-25T06:46:18.761Z,1.98
2022-07-25T06:48:45.505Z,2.13
2022-07-25T06:51:12.238Z,1.20
2022-07-25T06:53:38.653Z,1.65
2022-07-25T06:56:05.566Z,1.40
2022-07-25T06:58:32.072Z,1.40
2022-07-25T07:01:01.170Z,1.20
2022-07-25T07:03:28.211Z,1.30
2022-07-25T07:05:54.930Z,0.98
2022-07-25T07:08:21.354Z,1.50
2022-07-25T07:10:48.037Z,1.40
2022-07-25T07:13:23.905Z,1.35
2022-07-25T07:15:51.028Z,1.75
2022-07-25T07:18:18.792Z,1.50
2022-07-25T07:23:16.711Z,1.20
2022-07-25T07:25:46.807Z,1.38
2022-07-25T07:28:13.456Z,1.25
2022-07-25T07:31:13.551Z,1.15
2022-07-25T07:33:26.573Z,1.38
2022-07-25T07:35:53.111Z,0.70
2022-07-25T07:38:19.801Z,1.17
2022-07-25T07:40:46.268Z,0.80
2022-07-25T07:43:12.730Z,1.23
2022-07-25T07:45:39.174Z,2.20
2022-07-25T07:48:06.594Z,1.25
2022-07-25T07:50:33.389Z,1.25
2022-07-25T07:53:00.240Z,0.98
2022-07-25T07:55:45.358Z,1.02
2022-07-25T07:58:17.333Z,1.45
2022-07-25T08:00:54.322Z,0.93
2022-07-25T08:03:21.695Z,1.25
2022-07-25T08:05:49.792Z,1.00
2022-07-25T08:08:16.279Z,1.65
2022-07-25T08:10:45.451Z,1.60
2022-07-25T08:13:17.718Z,1.85
2022-07-25T08:15:46.311Z,1.63
2022-07-25T08:18:17.581Z,1.45
2022-07-25T08:20:45.498Z,1.63
2022-07-25T08:23:12.077Z,1.33
2022-07-25T08:25:39.173Z,1.13
2022-07-25T08:28:08.430Z,1.50
2022-07-25T08:30:36.725Z,1.90
2022-07-25T08:33:06.011Z,1.63
2022-07-25T08:35:34.169Z,1.25
2022-07-25T08:38:01.485Z,1.30
2022-07-25T08:40:28.845Z,1.58
2022-07-25T08:42:56.549Z,1.67
2022-07-25T08:47:51.736Z,1.77
2022-07-25T08:50:21.014Z,1.52
2022-07-25T08:52:48.994Z,1.70
2022-07-25T08:55:21.967Z,1.52
2022-07-25T08:57:53.306Z,1.45
2022-07-25T09:00:23.420Z,1.80
2022-07-25T09:03:02.188Z,1.38
2022-07-25T09:05:31.956Z,2.08
2022-07-25T09:08:07.066Z,1.33
2022-07-25T09:10:33.798Z,1.83
2022-07-25T09:13:03.094Z,1.23
2022-07-25T09:15:35.498Z,1.10
2022-07-25T09:18:08.143Z,1.33
2022-07-25T09:20:45.632Z,1.15
2022-07-25T09:23:14.459Z,1.25
2022-07-25T09:25:41.406Z,1.23
2022-07-25T09:28:15.443Z,1.45
2022-07-25T09:30:58.089Z,1.35
2022-07-25T09:33:26.141Z,2.33
2022-07-25T09:35:53.846Z,0.88
2022-07-25T09:38:21.402Z,1.27
2022-07-25T09:43:43.116Z,1.42
2022-07-25T09:46:11.671Z,1.52
2022-07-25T09:48:40.481Z,1.60
2022-07-25T09:51:07.573Z,1.15
2022-07-25T09:53:34.144Z,1.38
2022-07-25T09:56:01.066Z,1.45
2022-07-25T09:58:28.652Z,1.20
2022-07-25T10:01:06.072Z,1.38
2022-07-25T10:03:52.766Z,0.80
2022-07-25T10:06:47.803Z,1.00
2022-07-25T10:09:14.576Z,1.55
2022-07-25T10:11:41.417Z,1.88
2022-07-25T10:14:12.496Z,1.85
2022-07-25T10:16:47.051Z,1.60
2022-07-25T10:19:14.046Z,1.48
2022-07-25T10:21:40.965Z,1.33
2022-07-25T10:24:09.932Z,1.13
2022-07-25T10:26:42.122Z,1.30
2022-07-25T10:29:10.650Z,1.60
2022-07-25T10:31:49.502Z,1.35
2022-07-25T10:34:28.518Z,2.08
2022-07-25T10:36:58.973Z,1.70
2022-07-25T10:39:25.479Z,1.92
2022-07-25T10:42:02.811Z,2.05
2022-07-25T10:44:41.501Z,1.33
2022-07-25T10:47:13.031Z,1.77
2022-07-25T10:49:55.116Z,1.35
2022-07-25T10:52:29.243Z,1.33
2022-07-25T10:55:01.320Z,1.40
2022-07-25T10:57:32.015Z,1.45
2022-07-25T11:00:07.078Z,1.73
2022-07-25T11:02:34.106Z,2.17
2022-07-25T11:05:03.181Z,1.63
2022-07-25T11:07:36.022Z,2.22
2022-07-25T11:10:05.347Z,2.05
2022-07-25T11:12:32.325Z,2.55
2022-07-25T11:15:04.283Z,1.65
2022-07-25T11:17:30.784Z,2.03
2022-07-25T11:20:01.082Z,1.45
2022-07-25T11:22:28.923Z,1.75
2022-07-25T11:24:57.786Z,2.67
2022-07-25T11:27:32.609Z,1.92
2022-07-25T11:30:14.343Z,2.58
2022-07-25T11:32:41.638Z,2.25
2022-07-25T11:35:10.664Z,1.73
2022-07-25T11:40:06.914Z,1.75
2022-07-25T11:42:45.974Z,1.40
2022-07-25T11:45:18.134Z,1.40
2022-07-25T11:47:45.204Z,1.42
2022-07-25T11:50:14.879Z,2.22
2022-07-25T11:52:43.370Z,1.60
2022-07-25T11:55:13.876Z,1.88
2022-07-25T11:57:44.371Z,1.92
2022-07-25T12:00:19.692Z,2.15
2022-07-25T12:02:47.483Z,1.55
2022-07-25T12:05:16.740Z,2.67
2022-07-25T12:07:52.334Z,1.73
2022-07-25T12:10:24.595Z,2.10
2022-07-25T12:12:56.341Z,1.83
2022-07-25T12:15:27.294Z,2.47
2022-07-25T12:17:55.577Z,2.00
2022-07-25T12:20:23.773Z,1.85
2022-07-25T12:22:53.102Z,2.15
2022-07-25T12:25:19.945Z,1.73
2022-07-25T12:27:46.854Z,1.73
2022-07-25T12:30:14.785Z,2.50
2022-07-25T12:32:41.800Z,2.05
2022-07-25T12:35:11.019Z,2.38
2022-07-25T12:37:38.127Z,2.05
2022-07-25T12:40:05.710Z,2.53
2022-07-25T12:42:32.248Z,1.77
2022-07-25T12:44:59.009Z,2.22
2022-07-25T12:47:27.194Z,1.90
2022-07-25T12:49:54.514Z,2.20
2022-07-25T12:52:21.582Z,2.45
2022-07-25T12:54:48.259Z,1.65
2022-07-25T12:57:15.394Z,1.55
2022-07-25T12:59:42.574Z,2.10
2022-07-25T13:02:09.172Z,1.77
2022-07-25T13:04:35.809Z,1.50
2022-07-25T13:07:02.429Z,1.88
2022-07-25T13:09:29.205Z,2.20
2022-07-25T13:11:56.191Z,1.95
2022-07-25T13:14:23.107Z,2.20
2022-07-25T13:16:49.753Z,2.40
2022-07-25T13:19:17.065Z,2.13
2022-07-25T13:21:44.385Z,1.63
2022-07-25T13:24:11.559Z,1.95
2022-07-25T13:26:39.319Z,2.95
2022-07-25T13:29:09.529Z,2.05
2022-07-25T13:31:40.956Z,2.28
2022-07-25T13:34:08.676Z,2.13
2022-07-25T13:36:36.645Z,2.20
2022-07-25T13:39:04.531Z,2.05
2022-07-25T13:41:31.958Z,2.55
2022-07-25T13:43:59.230Z,1.98
2022-07-25T13:46:25.889Z,1.73
2022-07-25T13:48:53.288Z,2.05
2022-07-25T13:51:19.761Z,2.03
2022-07-25T13:53:46.265Z,1.92
2022-07-25T13:56:15.760Z,1.95
2022-07-25T13:58:43.084Z,1.00
2022-07-25T14:01:11.433Z,1.05
2022-07-25T14:03:39.385Z,1.30
2022-07-25T14:06:09.426Z,1.08
2022-07-25T14:08:36.070Z,0.80
2022-07-25T14:11:02.774Z,1.00
2022-07-25T14:13:29.424Z,1.40
2022-07-25T14:15:55.934Z,1.30
2022-07-25T14:18:22.631Z,1.15
2022-07-25T14:20:50.074Z,1.27
2022-07-25T14:23:16.935Z,1.70
2022-07-25T14:25:43.386Z,1.50
2022-07-25T14:28:09.873Z,1.40
2022-07-25T14:30:36.819Z,1.20
2022-07-25T14:33:03.566Z,1.27
2022-07-25T14:35:32.587Z,1.15
2022-07-25T14:37:59.551Z,0.70
2022-07-25T14:40:26.301Z,1.92
2022-07-25T14:42:52.985Z,1.20
2022-07-25T14:45:21.811Z,1.20
2022-07-25T14:47:48.309Z,0.95
2022-07-25T14:50:14.834Z,1.02
2022-07-25T14:52:41.397Z,0.90
2022-07-25T14:55:08.490Z,1.52
2022-07-25T14:57:34.978Z,1.17
2022-07-25T15:00:02.125Z,1.17
2022-07-25T15:02:28.731Z,1.15
2022-07-25T15:04:55.276Z,1.20
2022-07-25T15:07:22.047Z,0.77
2022-07-25T15:09:48.482Z,1.15
2022-07-25T15:12:17.095Z,0.82
2022-07-25T15:14:43.838Z,1.42
2022-07-25T15:17:10.472Z,0.90
2022-07-25T15:19:37.018Z,1.10
2022-07-25T15:22:03.554Z,0.85
2022-07-25T15:24:36.309Z,1.30
2022-07-25T15:27:10.846Z,1.17
2022-07-25T15:29:37.474Z,0.95
2022-07-25T15:32:05.458Z,0.75
2022-07-25T15:34:33.249Z,1.13
2022-07-25T15:36:59.710Z,1.17
2022-07-25T15:39:26.170Z,0.77
2022-07-25T15:41:52.799Z,0.90
2022-07-25T15:44:19.587Z,1.00
2022-07-25T15:46:46.330Z,1.25
2022-07-25T15:49:15.304Z,0.90
2022-07-25T15:51:41.929Z,1.75
2022-07-25T15:54:08.569Z,1.58
2022-07-25T15:56:35.314Z,1.48
2022-07-25T15:59:02.001Z,1.45
2022-07-25T16:01:28.667Z,1.30
2022-07-25T16:03:59.755Z,1.17
2022-07-25T16:06:27.551Z,1.52
2022-07-25T16:08:54.124Z,1.77
2022-07-25T16:11:20.600Z,1.30
2022-07-25T16:13:47.267Z,1.45
2022-07-25T16:16:13.887Z,1.55
2022-07-25T16:18:40.649Z,1.83
2022-07-25T16:21:07.064Z,1.00
2022-07-25T16:23:38.410Z,1.45
2022-07-25T16:26:08.466Z,1.25
2022-07-25T16:28:36.406Z,1.02
2022-07-25T16:31:03.318Z,1.73
2022-07-25T16:33:30.007Z,2.40
2022-07-25T16:35:59.798Z,1.42
2022-07-25T16:38:27.429Z,1.42
2022-07-25T16:40:53.858Z,1.15
2022-07-25T16:43:21.010Z,1.42
2022-07-25T16:45:47.542Z,1.73
2022-07-25T16:48:14.105Z,1.48
2022-07-25T16:50:40.720Z,1.80
2022-07-25T16:53:07.543Z,1.13
2022-07-25T16:55:34.172Z,1.90
2022-07-25T16:58:00.798Z,1.85
2022-07-25T17:00:27.362Z,1.70
2022-07-25T17:02:53.851Z,1.33
2022-07-25T17:05:20.627Z,1.08
2022-07-25T17:07:49.843Z,1.42
2022-07-25T17:10:16.319Z,1.15
2022-07-25T17:12:42.909Z,2.38
2022-07-25T17:15:09.889Z,1.67
2022-07-25T17:17:36.372Z,2.00
2022-07-25T17:20:03.241Z,2.38
2022-07-25T17:22:29.639Z,1.65
2022-07-25T17:24:56.508Z,2.15
2022-07-25T17:27:23.048Z,2.40
2022-07-25T17:29:49.565Z,2.72
2022-07-25T17:32:16.010Z,1.55
2022-07-25T17:34:42.508Z,2.60
2022-07-25T17:37:10.007Z,2.22
2022-07-25T17:39:37.265Z,2.40
2022-07-25T17:42:07.180Z,2.05
2022-07-25T17:44:34.773Z,1.77
2022-07-25T17:47:02.873Z,1.85
2022-07-25T17:49:30.075Z,1.60
2022-07-25T17:51:56.713Z,2.03
2022-07-25T17:54:23.122Z,1.58
2022-07-25T17:56:49.657Z,2.55
2022-07-25T17:59:16.147Z,1.98
2022-07-25T18:01:42.822Z,2.00
2022-07-25T18:04:09.758Z,2.03
2022-07-25T18:06:36.482Z,2.17
2022-07-25T18:09:03.387Z,2.45
2022-07-25T18:11:29.891Z,1.75
2022-07-25T18:13:56.397Z,2.08
2022-07-25T18:16:22.997Z,2.03
2022-07-25T18:18:49.534Z,2.28
2022-07-25T18:21:16.352Z,2.05
2022-07-25T18:23:42.814Z,1.90
2022-07-25T18:26:09.428Z,1.92
2022-07-25T18:28:36.414Z,1.58
2022-07-25T18:31:02.947Z,1.73
2022-07-25T18:33:29.590Z,2.03
2022-07-25T18:35:56.210Z,1.73
2022-07-25T18:38:22.723Z,2.63
2022-07-25T18:40:51.625Z,2.03
2022-07-25T18:43:24.433Z,1.85
2022-07-25T18:45:53.300Z,2.20
2022-07-25T18:48:19.821Z,1.38
2022-07-25T18:50:47.108Z,1.60
2022-07-25T18:53:13.594Z,2.00
2022-07-25T18:55:41.492Z,1.90
2022-07-25T18:58:08.907Z,1.90
2022-07-25T19:00:35.482Z,1.65
2022-07-25T19:03:01.998Z,1.08
2022-07-25T19:05:28.524Z,1.65
2022-07-25T19:07:58.066Z,2.67
2022-07-25T19:10:24.637Z,2.15
2022-07-25T19:12:51.093Z,1.40
2022-07-25T19:15:17.536Z,1.88
2022-07-25T19:17:44.519Z,1.73
2022-07-25T19:20:11.352Z,1.70
2022-07-25T19:22:37.930Z,1.55
2022-07-25T19:25:08.134Z,1.63
2022-07-25T19:27:35.394Z,1.48
2022-07-25T19:30:01.902Z,2.08
2022-07-25T19:32:28.419Z,1.70
2022-07-25T19:34:55.080Z,1.98
2022-07-25T19:37:24.018Z,1.38
2022-07-25T19:39:51.248Z,1.95
2022-07-25T19:42:17.741Z,1.90
2022-07-25T19:44:44.243Z,1.20
2022-07-25T19:47:12.047Z,1.30
2022-07-25T19:49:40.074Z,2.42
2022-07-25T19:54:37.300Z,1.73
2022-07-25T19:57:04.880Z,1.67
2022-07-25T19:59:31.711Z,1.98
2022-07-25T20:01:58.939Z,1.85
2022-07-25T20:04:25.515Z,1.85
2022-07-25T20:06:52.155Z,2.30
2022-07-25T20:09:18.593Z,2.60
2022-07-25T20:11:45.339Z,2.05
2022-07-25T20:14:12.324Z,2.42
2022-07-25T20:16:38.952Z,2.33
2022-07-25T20:19:08.088Z,2.00
2022-07-25T20:21:38.756Z,2.13
2022-07-25T20:24:05.489Z,1.77
2022-07-25T20:26:32.067Z,1.85
2022-07-25T20:28:59.058Z,3.58
2022-07-25T20:31:25.651Z,1.73
2022-07-25T20:33:52.444Z,2.20
2022-07-25T20:36:19.212Z,2.15
2022-07-25T20:38:45.673Z,2.05
2022-07-25T20:41:13.376Z,2.63
2022-07-25T20:43:40.654Z,2.13
2022-07-25T20:46:09.501Z,2.40
2022-07-25T20:48:36.255Z,2.78
2022-07-25T20:51:03.013Z,3.03
2022-07-25T20:53:29.732Z,2.22
2022-07-25T20:55:56.200Z,2.00
2022-07-25T20:58:22.734Z,2.05
2022-07-25T21:00:49.269Z,2.33
2022-07-25T21:03:15.888Z,2.85
2022-07-25T21:05:43.698Z,3.42
2022-07-25T21:10:39.785Z,2.88
2022-07-25T21:13:06.495Z,2.50
2022-07-25T21:15:33.207Z,2.38
2022-07-25T21:17:59.712Z,2.50
2022-07-25T21:20:26.262Z,2.55
2022-07-25T21:22:55.238Z,3.28
2022-07-25T21:27:48.307Z,2.85
2022-07-25T21:30:14.948Z,3.20
2022-07-25T21:32:41.806Z,1.92
2022-07-25T21:35:08.895Z,2.17
2022-07-25T21:37:35.321Z,2.72
2022-07-25T21:40:02.227Z,2.20
2022-07-25T21:42:29.426Z,2.25
2022-07-25T21:44:57.789Z,3.58
2022-07-25T21:47:24.270Z,2.65
2022-07-25T21:50:09.264Z,2.58
2022-07-25T21:52:35.812Z,2.45
2022-07-25T21:55:04.253Z,2.63
2022-07-25T21:57:31.470Z,2.67
2022-07-25T21:59:58.976Z,2.17
2022-07-25T22:02:25.934Z,2.90
2022-07-25T22:04:52.690Z,2.28
2022-07-25T22:07:19.324Z,2.30
2022-07-25T22:09:46.061Z,2.78
2022-07-25T22:12:12.629Z,2.58
2022-07-25T22:14:39.171Z,3.10
2022-07-25T22:17:05.893Z,2.92
2022-07-25T22:19:33.299Z,2.65
2022-07-25T22:22:00.093Z,2.25
2022-07-25T22:24:26.733Z,3.20
2022-07-25T22:26:53.456Z,3.08
2022-07-25T22:29:20.113Z,1.77
2022-07-25T22:31:46.582Z,3.05
2022-07-25T22:34:14.172Z,2.40
2022-07-25T22:36:40.959Z,2.03
2022-07-25T22:39:07.910Z,3.03
2022-07-25T22:41:34.902Z,2.72
2022-07-25T22:44:01.508Z,2.00
2022-07-25T22:46:29.271Z,1.77
2022-07-25T22:48:56.557Z,2.70
2022-07-25T22:51:23.483Z,2.90
2022-07-25T22:53:50.508Z,2.53
2022-07-25T22:56:17.312Z,2.63
2022-07-25T22:58:44.283Z,2.17
2022-07-25T23:01:13.764Z,2.65
2022-07-25T23:03:40.300Z,3.33
2022-07-25T23:06:07.198Z,2.08
2022-07-25T23:08:33.795Z,3.47
2022-07-25T23:11:00.315Z,3.30
2022-07-25T23:13:26.761Z,2.08
2022-07-25T23:15:53.297Z,2.33
2022-07-25T23:18:19.762Z,2.50
2022-07-25T23:20:46.294Z,3.05
2022-07-25T23:23:13.156Z,2.55
2022-07-25T23:25:39.753Z,2.60
2022-07-25T23:28:06.203Z,2.25
2022-07-25T23:30:36.689Z,2.78
2022-07-25T23:33:06.656Z,2.83
2022-07-25T23:35:33.184Z,2.60
2022-07-25T23:38:00.408Z,2.28
2022-07-25T23:40:27.562Z,2.22
2022-07-25T23:42:54.427Z,1.95
2022-07-25T23:45:21.730Z,2.33
2022-07-25T23:47:50.659Z,3.38
2022-07-25T23:50:18.293Z,3.03
2022-07-25T23:52:44.774Z,2.20
2022-07-25T23:55:11.413Z,2.53
2022-07-25T23:57:38.081Z,2.47
